Nabq, Egypt
Current Conditions -  °F | °C
As of 2:00 PM on Thursday 18 Dec 2014 (Local Time) from HESH Reporting Station
Clear Clear  
Wind Chill: 77°   Ceiling: Unl
Heat Index: 79°   Visibility: 6mi
Dew Point: 61°   Wind: 3mph
Humidity: 57%   Direction: 100°E
Pressure: 30"   Gusts: NA
Location:  28.07°N, 34.42°E
Report Text: HESH 181200Z 10003KT CAVOK 25/16 Q1016 NOSIG
Loading
Personal Weather Stations






























Interactive Weather Map New forecast layout! Learn more

10-Day Weather Forecast

Advertisements
Track Severe Weather on mobile